createdAt,value
2022-11-16T00:03:47.538Z,96345.03
2022-11-16T00:07:51.584Z,96342.97
2022-11-16T00:11:56.121Z,96336.22
2022-11-16T00:15:58.783Z,96345.09
2022-11-16T00:20:01.997Z,96328.00
2022-11-16T00:24:07.127Z,96304.53
2022-11-16T00:28:10.756Z,96282.69
2022-11-16T00:32:13.457Z,96277.34
2022-11-16T00:36:16.449Z,96265.22
2022-11-16T00:40:20.519Z,96296.50
2022-11-16T00:44:23.186Z,96297.75
2022-11-16T00:48:25.910Z,96305.34
2022-11-16T00:52:28.679Z,96301.03
2022-11-16T00:56:32.730Z,96281.25
2022-11-16T01:00:35.611Z,96280.22
2022-11-16T01:04:38.326Z,96280.84
2022-11-16T01:08:42.263Z,96276.72
2022-11-16T01:12:47.217Z,96261.91
2022-11-16T01:16:50.632Z,96243.59
2022-11-16T01:20:54.322Z,96222.19
2022-11-16T01:24:56.988Z,96243.59
2022-11-16T01:29:01.098Z,96272.22
2022-11-16T01:33:03.793Z,96265.63
2022-11-16T01:37:06.475Z,96237.44
2022-11-16T01:41:09.464Z,96234.53
2022-11-16T01:45:34.103Z,96237.22
2022-11-16T01:49:40.748Z,96247.34
2022-11-16T01:53:43.701Z,96235.16
2022-11-16T01:57:48.257Z,96229.22
2022-11-16T02:01:52.258Z,96225.09
2022-11-16T02:06:18.650Z,96220.38
2022-11-16T02:10:37.117Z,96209.66
2022-11-16T02:15:04.680Z,96215.03
2022-11-16T02:19:31.292Z,96215.66
2022-11-16T02:24:12.122Z,96205.75
2022-11-16T02:28:26.777Z,96208.63
2022-11-16T02:32:35.742Z,96208.44
2022-11-16T02:36:43.133Z,96219.94
2022-11-16T02:40:49.448Z,96202.88
2022-11-16T02:44:55.596Z,96198.53
2022-11-16T02:49:04.157Z,96194.84
2022-11-16T02:53:06.828Z,96188.88
2022-11-16T02:57:33.380Z,96189.91
2022-11-16T03:01:41.061Z,96186.41
2022-11-16T03:05:49.222Z,96177.16
2022-11-16T03:09:53.943Z,96167.47
2022-11-16T03:14:00.338Z,96152.84
2022-11-16T03:18:04.349Z,96161.91
2022-11-16T03:22:13.640Z,96167.88
2022-11-16T03:26:20.204Z,96159.00
2022-11-16T03:30:24.673Z,96175.91
2022-11-16T03:34:34.213Z,96189.91
2022-11-16T03:38:40.976Z,96198.97
2022-11-16T03:42:45.701Z,96201.22
2022-11-16T03:46:49.317Z,96196.09
2022-11-16T03:50:52.812Z,96187.84
2022-11-16T03:54:56.798Z,96195.69
2022-11-16T03:58:59.441Z,96186.81
2022-11-16T04:03:02.090Z,96196.50
2022-11-16T04:07:22.390Z,96193.22
2022-11-16T04:11:43.793Z,96192.38
2022-11-16T04:16:04.268Z,96189.50
2022-11-16T04:20:24.800Z,96194.84
2022-11-16T04:24:31.995Z,96200.22
2022-11-16T04:28:37.133Z,96197.13
2022-11-16T04:32:57.667Z,96204.09
2022-11-16T04:37:17.971Z,96205.13
2022-11-16T04:41:38.188Z,96200.63
2022-11-16T04:45:59.573Z,96189.50
2022-11-16T04:50:02.269Z,96188.06
2022-11-16T04:54:04.947Z,96181.88
2022-11-16T04:58:07.689Z,96193.63
2022-11-16T05:02:11.793Z,96201.03
2022-11-16T05:06:14.470Z,96201.59
2022-11-16T05:10:17.420Z,96205.38
2022-11-16T05:14:20.086Z,96217.91
2022-11-16T05:18:24.107Z,96224.22
2022-11-16T05:22:26.965Z,96250.25
2022-11-16T05:26:29.601Z,96251.22
2022-11-16T05:30:32.374Z,96265.25
2022-11-16T05:34:36.590Z,96275.97
2022-11-16T05:38:39.228Z,96280.28
2022-11-16T05:42:41.894Z,96280.91
2022-11-16T05:46:45.139Z,96264.22
2022-11-16T05:50:49.181Z,96243.84
2022-11-16T05:54:51.927Z,96256.44
2022-11-16T05:58:54.664Z,96255.38
2022-11-16T06:02:57.467Z,96249.59
2022-11-16T06:07:01.643Z,96252.06
2022-11-16T06:11:05.681Z,96258.28
2022-11-16T06:15:08.807Z,96266.31
2022-11-16T06:19:11.662Z,96272.50
2022-11-16T06:23:16.006Z,96249.59
2022-11-16T06:27:18.688Z,96260.72
2022-11-16T06:31:21.440Z,96246.94
2022-11-16T06:35:24.283Z,96247.34
2022-11-16T06:39:28.403Z,96245.91
2022-11-16T06:43:31.104Z,96250.22
2022-11-16T06:47:34.644Z,96245.91
2022-11-16T06:51:37.601Z,96245.91
2022-11-16T06:55:42.234Z,96248.78
2022-11-16T06:59:45.676Z,96239.53
2022-11-16T07:03:48.407Z,96242.22
2022-11-16T07:07:55.188Z,96233.75
2022-11-16T07:11:59.568Z,96239.75
2022-11-16T07:16:03.587Z,96244.47
2022-11-16T07:20:07.288Z,96243.00
2022-11-16T07:24:09.956Z,96225.09
2022-11-16T07:28:14.010Z,96218.75
2022-11-16T07:32:16.782Z,96227.16
2022-11-16T07:36:20.017Z,96221.63
2022-11-16T07:40:22.696Z,96226.97
2022-11-16T07:44:27.685Z,96231.47
2022-11-16T07:48:30.537Z,96249.22
2022-11-16T07:52:33.480Z,96256.81
2022-11-16T07:56:36.142Z,96258.47
2022-11-16T08:00:40.213Z,96266.69
2022-11-16T08:04:43.641Z,96270.19
2022-11-16T08:08:46.423Z,96268.97
2022-11-16T08:12:49.081Z,96272.47
2022-11-16T08:16:53.109Z,96272.06
2022-11-16T08:20:55.748Z,96272.88
2022-11-16T08:24:58.441Z,96268.75
2022-11-16T08:29:01.291Z,96256.19
2022-11-16T08:33:05.320Z,96260.72
2022-11-16T08:37:09.414Z,96271.63
2022-11-16T08:41:12.157Z,96270.00
2022-11-16T08:45:15.497Z,96274.75
2022-11-16T08:49:20.424Z,96272.69
2022-11-16T08:53:23.123Z,96271.44
2022-11-16T08:57:25.877Z,96287.72
2022-11-16T09:01:30.221Z,96282.75
2022-11-16T09:05:34.440Z,96280.31
2022-11-16T09:09:37.305Z,96284.59
2022-11-16T09:13:44.484Z,96288.53
2022-11-16T09:17:47.233Z,96281.75
2022-11-16T09:21:51.310Z,96290.78
2022-11-16T09:25:55.621Z,96298.22
2022-11-16T09:30:07.513Z,96290.59
2022-11-16T09:34:10.373Z,96283.56
2022-11-16T09:38:20.689Z,96273.47
2022-11-16T09:42:39.395Z,96279.03
2022-11-16T09:46:47.217Z,96273.66
2022-11-16T09:50:56.957Z,96281.28
2022-11-16T09:55:04.212Z,96283.34
2022-11-16T09:59:18.295Z,96287.03
2022-11-16T10:03:21.188Z,96284.94
2022-11-16T10:07:31.875Z,96292.75
2022-11-16T10:11:52.385Z,96287.84
2022-11-16T10:16:12.333Z,96289.91
2022-11-16T10:20:38.535Z,96283.69
2022-11-16T10:24:54.149Z,96289.47
2022-11-16T10:29:26.078Z,96283.66
2022-11-16T10:33:37.763Z,96266.88
2022-11-16T10:37:46.080Z,96261.72
2022-11-16T10:41:50.893Z,96258.00
2022-11-16T10:46:00.050Z,96246.03
2022-11-16T10:50:05.732Z,96244.81
2022-11-16T10:54:13.536Z,96237.44
2022-11-16T10:58:16.541Z,96243.81
2022-11-16T11:02:31.382Z,96244.00
2022-11-16T11:06:34.554Z,96249.38
2022-11-16T11:10:38.986Z,96253.88
2022-11-16T11:14:41.691Z,96253.03
2022-11-16T11:18:47.065Z,96251.78
2022-11-16T11:22:55.011Z,96255.91
2022-11-16T11:27:00.535Z,96244.34
2022-11-16T11:31:07.051Z,96240.00
2022-11-16T11:35:23.007Z,96234.22
2022-11-16T11:39:43.424Z,96254.78
2022-11-16T11:44:03.247Z,96252.69
2022-11-16T11:48:19.850Z,96250.41
2022-11-16T11:52:30.857Z,96241.56
2022-11-16T11:56:34.329Z,96231.44
2022-11-16T12:00:44.889Z,96227.66
2022-11-16T12:05:22.245Z,96221.25
2022-11-16T12:09:37.537Z,96223.63
2022-11-16T12:13:59.818Z,96223.81
2022-11-16T12:18:16.556Z,96206.84
2022-11-16T12:22:35.552Z,96188.53
2022-11-16T12:26:52.343Z,96196.56
2022-11-16T12:31:06.148Z,96195.91
2022-11-16T12:35:23.650Z,96196.69
2022-11-16T12:39:34.966Z,96198.09
2022-11-16T12:43:47.198Z,96206.69
2022-11-16T12:48:13.478Z,96197.94
2022-11-16T12:52:37.388Z,96218.19
2022-11-16T12:56:50.162Z,96215.22
2022-11-16T13:01:02.652Z,96212.53
2022-11-16T13:05:17.387Z,96210.25
2022-11-16T13:09:24.732Z,96207.69
2022-11-16T13:13:38.346Z,96215.13
2022-11-16T13:17:42.673Z,96221.47
2022-11-16T13:21:56.450Z,96215.41
2022-11-16T13:26:13.085Z,96211.41
2022-11-16T13:30:20.236Z,96208.56
2022-11-16T13:34:27.070Z,96214.97
2022-11-16T13:38:52.411Z,96212.50
2022-11-16T13:43:23.082Z,96211.63
2022-11-16T13:47:30.420Z,96210.44
2022-11-16T13:51:35.449Z,96202.56
2022-11-16T13:55:46.683Z,96201.97
2022-11-16T13:59:53.211Z,96189.22
2022-11-16T14:04:42.647Z,96196.53
2022-11-16T14:08:49.112Z,96188.84
2022-11-16T14:13:00.035Z,96186.91
2022-11-16T14:17:02.721Z,96182.34
2022-11-16T14:21:17.940Z,96169.72
2022-11-16T14:25:34.533Z,96174.72
2022-11-16T14:29:56.046Z,96169.25
2022-11-16T14:34:02.869Z,96144.47
2022-11-16T14:38:11.149Z,96146.78
2022-11-16T14:42:21.582Z,96142.31
2022-11-16T14:46:28.094Z,96139.72
2022-11-16T14:50:35.394Z,96145.53
2022-11-16T14:54:48.559Z,96155.09
2022-11-16T14:58:53.930Z,96157.25
2022-11-16T15:03:02.590Z,96157.69
2022-11-16T15:07:06.655Z,96154.41
2022-11-16T15:11:15.838Z,96160.09
2022-11-16T15:15:23.547Z,96170.69
2022-11-16T15:19:29.776Z,96163.69
2022-11-16T15:23:32.896Z,96143.47
2022-11-16T15:27:39.033Z,96144.41
2022-11-16T15:31:44.251Z,96141.41
2022-11-16T15:35:47.265Z,96149.94
2022-11-16T15:39:50.265Z,96166.97
2022-11-16T15:44:13.467Z,96169.78
2022-11-16T15:48:21.999Z,96157.09
2022-11-16T15:52:44.584Z,96154.03
2022-11-16T15:56:47.369Z,96168.16
2022-11-16T16:00:50.217Z,96157.25
2022-11-16T16:04:54.298Z,96155.38
2022-11-16T16:09:07.241Z,96155.25
2022-11-16T16:13:32.579Z,96162.25
2022-11-16T16:17:35.494Z,96162.63
2022-11-16T16:21:45.201Z,96159.34
2022-11-16T16:25:50.772Z,96149.72
2022-11-16T16:29:55.223Z,96161.94
2022-11-16T16:33:59.511Z,96159.69
2022-11-16T16:38:03.521Z,96153.59
2022-11-16T16:42:09.448Z,96148.06
2022-11-16T16:46:12.876Z,96137.84
2022-11-16T16:50:15.670Z,96136.44
2022-11-16T16:54:19.848Z,96147.41
2022-11-16T16:58:22.598Z,96136.75
2022-11-16T17:02:26.892Z,96146.91
2022-11-16T17:06:30.641Z,96139.69
2022-11-16T17:10:34.701Z,96130.38
2022-11-16T17:14:37.554Z,96135.06
2022-11-16T17:18:40.623Z,96138.81
2022-11-16T17:22:43.412Z,96123.13
2022-11-16T17:26:48.844Z,96137.38
2022-11-16T17:30:51.539Z,96130.38
2022-11-16T17:34:54.490Z,96136.34
2022-11-16T17:38:58.028Z,96139.25
2022-11-16T17:43:02.126Z,96140.75
2022-11-16T17:47:04.841Z,96139.94
2022-11-16T17:51:07.855Z,96132.09
2022-11-16T17:55:10.810Z,96131.56
2022-11-16T17:59:14.843Z,96129.34
2022-11-16T18:03:17.696Z,96126.56
2022-11-16T18:07:20.472Z,96130.97
2022-11-16T18:11:25.099Z,96121.94
2022-11-16T18:15:29.646Z,96112.84
2022-11-16T18:19:32.403Z,96108.88
2022-11-16T18:23:36.008Z,96102.16
2022-11-16T18:27:39.022Z,96100.75
2022-11-16T18:31:43.174Z,96094.56
2022-11-16T18:35:45.917Z,96079.69
2022-11-16T18:39:48.570Z,96086.50
2022-11-16T18:43:53.458Z,96088.13
2022-11-16T18:47:57.536Z,96074.31
2022-11-16T18:52:00.553Z,96075.38
2022-11-16T18:56:03.303Z,96087.34
2022-11-16T19:00:07.266Z,96082.06
2022-11-16T19:04:11.852Z,96075.09
2022-11-16T19:08:15.561Z,96066.81
2022-11-16T19:12:18.284Z,96072.56
2022-11-16T19:16:20.930Z,96060.38
2022-11-16T19:20:25.037Z,96062.66
2022-11-16T19:24:27.814Z,96055.66
2022-11-16T19:28:30.479Z,96059.97
2022-11-16T19:32:33.159Z,96052.31
2022-11-16T19:36:38.383Z,96049.44
2022-11-16T19:40:41.073Z,96068.09
2022-11-16T19:44:43.770Z,96052.59
2022-11-16T19:48:47.235Z,96064.13
2022-11-16T19:52:51.267Z,96049.31
2022-11-16T19:56:55.336Z,96056.16
2022-11-16T20:01:02.600Z,96051.59
2022-11-16T20:05:06.040Z,96040.06
2022-11-16T20:09:12.241Z,96044.38
2022-11-16T20:13:14.947Z,96047.44
2022-11-16T20:17:17.646Z,96042.44
2022-11-16T20:21:23.806Z,96034.75
2022-11-16T20:25:29.106Z,96030.84
2022-11-16T20:29:32.472Z,96027.34
2022-11-16T20:33:35.665Z,96018.66
2022-11-16T20:37:38.728Z,96023.81
2022-11-16T20:41:43.867Z,96023.00
2022-11-16T20:45:46.577Z,96032.03
2022-11-16T20:49:49.247Z,96028.53
2022-11-16T20:53:52.041Z,96032.25
2022-11-16T20:57:56.045Z,96035.53
2022-11-16T21:01:58.786Z,96031.06
2022-11-16T21:06:01.859Z,96035.16
2022-11-16T21:10:19.881Z,96030.63
2022-11-16T21:14:24.692Z,96035.78
2022-11-16T21:18:30.665Z,96041.16
2022-11-16T21:22:33.567Z,96036.84
2022-11-16T21:26:37.133Z,96031.69
2022-11-16T21:30:41.163Z,96031.69
2022-11-16T21:34:44.017Z,96035.41
2022-11-16T21:38:47.403Z,96036.91
2022-11-16T21:42:52.286Z,96029.53
2022-11-16T21:46:56.352Z,96024.97
2022-11-16T21:51:02.509Z,96037.38
2022-11-16T21:55:05.994Z,96035.94
2022-11-16T21:59:08.652Z,96047.25
2022-11-16T22:03:12.709Z,96038.81
2022-11-16T22:07:32.902Z,96028.09
2022-11-16T22:11:35.706Z,96026.69
2022-11-16T22:15:38.442Z,96023.41
2022-11-16T22:19:42.473Z,96009.38
2022-11-16T22:23:45.254Z,95978.97
2022-11-16T22:28:13.896Z,95985.34
2022-11-16T22:32:12.232Z,95988.25
2022-11-16T22:36:16.249Z,95982.88
2022-11-16T22:40:19.021Z,95966.66
2022-11-16T22:44:21.776Z,95975.13
2022-11-16T22:48:24.410Z,95983.63
2022-11-16T22:52:28.448Z,95972.66
2022-11-16T22:56:33.074Z,95977.22
2022-11-16T23:00:40.553Z,95978.28
2022-11-16T23:04:44.565Z,95970.88
2022-11-16T23:08:49.074Z,95967.53
2022-11-16T23:13:09.341Z,95958.94
2022-11-16T23:17:14.624Z,95957.53
2022-11-16T23:21:34.780Z,95948.88
2022-11-16T23:25:56.078Z,95942.53
2022-11-16T23:29:59.447Z,95946.13
2022-11-16T23:34:02.129Z,95930.84
2022-11-16T23:38:06.450Z,95915.19
2022-11-16T23:42:28.634Z,95921.38
2022-11-16T23:46:33.984Z,95910.66
2022-11-16T23:50:36.846Z,95918.75
2022-11-16T23:54:39.560Z,95923.69
2022-11-16T23:58:43.645Z,95923.06
